createdAt,value
2022-12-23T00:00:23.157Z,0.00
2022-12-23T00:01:23.123Z,0.00
2022-12-23T00:02:23.159Z,0.00
2022-12-23T00:03:23.174Z,0.00
2022-12-23T00:04:23.160Z,0.00
2022-12-23T00:05:22.981Z,0.00
2022-12-23T00:06:22.944Z,0.00
2022-12-23T00:07:22.905Z,0.00
2022-12-23T00:08:22.860Z,0.00
2022-12-23T00:09:22.834Z,0.00
2022-12-23T00:10:22.793Z,0.00
2022-12-23T00:11:22.764Z,0.00
2022-12-23T00:12:22.720Z,0.00
2022-12-23T00:13:22.688Z,0.00
2022-12-23T00:14:22.650Z,0.00
2022-12-23T00:15:22.620Z,0.00
2022-12-23T00:16:22.615Z,0.00
2022-12-23T00:17:23.325Z,0.00
2022-12-23T00:18:22.508Z,0.00
2022-12-23T00:19:22.474Z,0.00
2022-12-23T00:20:22.437Z,0.00
2022-12-23T00:21:22.403Z,0.00
2022-12-23T00:22:22.366Z,0.00
2022-12-23T00:23:22.341Z,0.00
2022-12-23T00:24:22.291Z,0.00
2022-12-23T00:25:22.252Z,0.00
2022-12-23T00:26:22.243Z,0.00
2022-12-23T00:27:22.193Z,0.00
2022-12-23T00:28:22.153Z,0.00
2022-12-23T00:29:22.118Z,0.00
2022-12-23T00:30:22.080Z,0.00
2022-12-23T00:31:22.077Z,0.00
2022-12-23T00:32:21.998Z,0.00
2022-12-23T00:33:21.970Z,0.00
2022-12-23T00:34:21.940Z,0.00
2022-12-23T00:35:21.898Z,0.00
2022-12-23T00:36:21.919Z,0.00
2022-12-23T00:37:21.824Z,0.00
2022-12-23T00:38:21.804Z,0.00
2022-12-23T00:39:21.752Z,0.00
2022-12-23T00:40:21.720Z,0.00
2022-12-23T00:41:21.701Z,0.00
2022-12-23T00:42:21.653Z,0.00
2022-12-23T00:43:21.611Z,0.00
2022-12-23T00:44:21.581Z,0.00
2022-12-23T00:45:21.547Z,0.00
2022-12-23T00:46:21.585Z,0.00
2022-12-23T00:47:21.468Z,0.00
2022-12-23T00:48:21.438Z,0.00
2022-12-23T00:49:21.396Z,0.00
2022-12-23T00:50:21.362Z,0.00
2022-12-23T00:51:21.329Z,0.00
2022-12-23T00:52:21.301Z,0.00
2022-12-23T00:53:21.252Z,0.00
2022-12-23T00:54:21.246Z,0.00
2022-12-23T00:55:21.191Z,0.00
2022-12-23T00:56:21.157Z,0.00
2022-12-23T00:57:21.113Z,0.00
2022-12-23T00:58:21.074Z,0.00
2022-12-23T00:59:21.039Z,0.00
2022-12-23T01:00:21.001Z,0.00
2022-12-23T01:01:21.178Z,0.00
2022-12-23T01:02:21.067Z,0.00
2022-12-23T01:03:20.981Z,0.00
2022-12-23T01:04:20.858Z,0.00
2022-12-23T01:05:20.859Z,0.00
2022-12-23T01:06:20.787Z,0.00
2022-12-23T01:07:20.745Z,0.00
2022-12-23T01:08:20.716Z,0.00
2022-12-23T01:09:20.683Z,0.00
2022-12-23T01:10:20.644Z,0.00
2022-12-23T01:11:20.610Z,0.00
2022-12-23T01:12:20.580Z,0.00
2022-12-23T01:13:20.534Z,0.00
2022-12-23T01:14:20.496Z,0.00
2022-12-23T01:15:20.458Z,0.00
2022-12-23T01:16:20.498Z,0.00
2022-12-23T01:17:20.480Z,0.00
2022-12-23T01:18:20.377Z,0.00
2022-12-23T01:19:20.330Z,0.00
2022-12-23T01:20:20.289Z,0.00
2022-12-23T01:21:20.243Z,0.00
2022-12-23T01:22:20.207Z,0.00
2022-12-23T01:23:20.173Z,0.00
2022-12-23T01:24:20.138Z,0.00
2022-12-23T01:25:20.105Z,0.00
2022-12-23T01:26:20.074Z,0.00
2022-12-23T01:27:20.037Z,0.00
2022-12-23T01:28:19.992Z,0.00
2022-12-23T01:29:19.955Z,0.00
2022-12-23T01:30:19.933Z,0.00
2022-12-23T01:31:19.923Z,0.00
2022-12-23T01:32:19.944Z,0.00
2022-12-23T01:33:19.821Z,0.00
2022-12-23T01:34:19.788Z,0.00
2022-12-23T01:35:19.736Z,0.00
2022-12-23T01:36:19.701Z,0.00
2022-12-23T01:37:19.668Z,0.00
2022-12-23T01:38:19.629Z,0.00
2022-12-23T01:39:19.599Z,0.00
2022-12-23T01:40:19.564Z,0.00
2022-12-23T01:41:19.541Z,0.00
2022-12-23T01:42:19.497Z,0.00
2022-12-23T01:43:19.456Z,0.00
2022-12-23T01:44:19.415Z,0.00
2022-12-23T01:45:19.379Z,0.00
2022-12-23T01:46:19.464Z,0.00
2022-12-23T01:47:19.306Z,0.00
2022-12-23T01:48:19.270Z,0.00
2022-12-23T01:49:19.247Z,0.00
2022-12-23T01:50:19.198Z,0.00
2022-12-23T01:51:19.159Z,0.00
2022-12-23T01:52:19.127Z,0.00
2022-12-23T01:53:19.083Z,0.00
2022-12-23T01:54:19.058Z,0.00
2022-12-23T01:55:19.024Z,0.00
2022-12-23T01:56:18.984Z,0.00
2022-12-23T01:57:18.989Z,0.00
2022-12-23T01:58:18.909Z,0.00
2022-12-23T01:59:18.870Z,0.00
2022-12-23T02:00:18.853Z,0.00
2022-12-23T02:01:18.826Z,0.00
2022-12-23T02:02:19.069Z,0.00
2022-12-23T02:03:18.748Z,0.00
2022-12-23T02:04:18.685Z,0.00
2022-12-23T02:05:18.656Z,0.00
2022-12-23T02:06:18.610Z,0.00
2022-12-23T02:07:18.576Z,0.00
2022-12-23T02:08:18.541Z,0.00
2022-12-23T02:09:18.515Z,0.00
2022-12-23T02:10:18.473Z,0.00
2022-12-23T02:11:18.435Z,0.00
2022-12-23T02:12:18.411Z,0.00
2022-12-23T02:13:18.355Z,0.00
2022-12-23T02:14:18.324Z,0.00
2022-12-23T02:15:18.290Z,0.00
2022-12-23T02:16:18.364Z,0.00
2022-12-23T02:17:18.306Z,0.00
2022-12-23T02:18:18.180Z,0.00
2022-12-23T02:19:18.138Z,0.00
2022-12-23T02:20:18.107Z,0.00
2022-12-23T02:21:18.067Z,0.00
2022-12-23T02:22:18.036Z,0.00
2022-12-23T02:23:18.001Z,0.00
2022-12-23T02:24:17.958Z,0.00
2022-12-23T02:25:17.935Z,0.00
2022-12-23T02:26:17.886Z,0.00
2022-12-23T02:27:17.859Z,0.00
2022-12-23T02:28:17.817Z,0.00
2022-12-23T02:29:17.778Z,0.00
2022-12-23T02:30:17.751Z,0.00
2022-12-23T02:31:17.748Z,0.00
2022-12-23T02:32:17.675Z,0.00
2022-12-23T02:33:17.654Z,0.00
2022-12-23T02:34:17.602Z,0.00
2022-12-23T02:35:17.579Z,0.00
2022-12-23T02:36:17.521Z,0.00
2022-12-23T02:37:17.490Z,0.00
2022-12-23T02:38:17.451Z,0.00
2022-12-23T02:39:17.416Z,0.00
2022-12-23T02:40:17.385Z,0.00
2022-12-23T02:41:17.344Z,0.00
2022-12-23T02:42:17.304Z,0.00
2022-12-23T02:43:17.270Z,0.00
2022-12-23T02:44:17.243Z,0.00
2022-12-23T02:45:17.210Z,0.00
2022-12-23T02:46:17.226Z,0.00
2022-12-23T02:47:17.136Z,0.00
2022-12-23T02:48:17.114Z,0.00
2022-12-23T02:49:17.055Z,0.00
2022-12-23T02:50:17.028Z,0.00
2022-12-23T02:51:16.982Z,0.00
2022-12-23T02:52:16.953Z,0.00
2022-12-23T02:53:16.983Z,0.00
2022-12-23T02:54:16.890Z,0.00
2022-12-23T02:55:16.837Z,0.00
2022-12-23T02:56:16.811Z,0.00
2022-12-23T02:57:16.772Z,0.00
2022-12-23T02:58:16.742Z,0.00
2022-12-23T02:59:16.706Z,0.00
2022-12-23T03:00:16.657Z,0.00
2022-12-23T03:01:16.670Z,0.00
2022-12-23T03:02:16.804Z,0.00
2022-12-23T03:03:16.725Z,0.00
2022-12-23T03:04:16.518Z,0.00
2022-12-23T03:05:16.485Z,0.00
2022-12-23T03:06:16.443Z,0.00
2022-12-23T03:07:18.656Z,0.00
2022-12-23T03:08:16.361Z,0.00
2022-12-23T03:09:16.332Z,0.00
2022-12-23T03:10:16.308Z,0.00
2022-12-23T03:11:16.259Z,0.00
2022-12-23T03:12:16.236Z,0.00
2022-12-23T03:13:16.192Z,0.00
2022-12-23T03:14:16.162Z,0.00
2022-12-23T03:15:16.122Z,0.00
2022-12-23T03:16:16.160Z,0.00
2022-12-23T03:17:16.043Z,0.00
2022-12-23T03:18:16.014Z,0.00
2022-12-23T03:19:15.964Z,0.00
2022-12-23T03:20:15.936Z,0.00
2022-12-23T03:21:15.935Z,0.00
2022-12-23T03:22:15.866Z,0.00
2022-12-23T03:23:15.827Z,0.00
2022-12-23T03:24:15.803Z,0.00
2022-12-23T03:25:15.755Z,0.00
2022-12-23T03:26:15.751Z,0.00
2022-12-23T03:27:15.685Z,0.00
2022-12-23T03:28:15.641Z,0.00
2022-12-23T03:29:15.611Z,0.00
2022-12-23T03:30:15.572Z,0.00
2022-12-23T03:31:15.599Z,0.00
2022-12-23T03:32:15.551Z,0.00
2022-12-23T03:33:15.471Z,0.00
2022-12-23T03:34:15.425Z,0.00
2022-12-23T03:35:15.392Z,0.00
2022-12-23T03:36:15.362Z,0.00
2022-12-23T03:37:15.319Z,0.00
2022-12-23T03:38:15.279Z,0.00
2022-12-23T03:39:15.247Z,0.00
2022-12-23T03:40:15.231Z,0.00
2022-12-23T03:41:15.178Z,0.00
2022-12-23T03:42:15.137Z,0.00
2022-12-23T03:43:15.105Z,0.00
2022-12-23T03:44:15.072Z,0.00
2022-12-23T03:45:41.716Z,0.00
2022-12-23T03:46:15.065Z,0.00
2022-12-23T03:47:14.957Z,0.00
2022-12-23T03:48:14.947Z,0.00
2022-12-23T03:49:14.893Z,0.00
2022-12-23T03:50:14.854Z,0.00
2022-12-23T03:51:14.835Z,0.00
2022-12-23T03:52:21.039Z,0.00
2022-12-23T03:53:14.746Z,0.00
2022-12-23T03:54:14.700Z,0.00
2022-12-23T03:55:14.671Z,0.00
2022-12-23T03:56:14.630Z,0.00
2022-12-23T03:57:14.610Z,0.00
2022-12-23T03:58:14.579Z,0.00
2022-12-23T03:59:14.553Z,0.00
2022-12-23T04:00:14.485Z,0.00
2022-12-23T04:01:14.603Z,0.00
2022-12-23T04:02:14.511Z,0.00
2022-12-23T04:03:14.373Z,0.00
2022-12-23T04:04:14.402Z,0.00
2022-12-23T04:05:14.307Z,0.00
2022-12-23T04:06:14.274Z,0.00
2022-12-23T04:07:14.237Z,0.00
2022-12-23T04:08:14.215Z,0.00
2022-12-23T04:09:19.825Z,0.00
2022-12-23T04:10:14.128Z,0.00
2022-12-23T04:11:14.097Z,0.00
2022-12-23T04:12:14.056Z,0.00
2022-12-23T04:13:14.050Z,0.00
2022-12-23T04:14:13.978Z,0.00
2022-12-23T04:15:13.947Z,0.00
2022-12-23T04:16:13.973Z,0.00
2022-12-23T04:17:13.879Z,0.00
2022-12-23T04:18:13.836Z,0.00
2022-12-23T04:19:13.799Z,0.00
2022-12-23T04:20:13.777Z,0.00
2022-12-23T04:21:13.739Z,0.00
2022-12-23T04:22:13.690Z,0.00
2022-12-23T04:23:13.664Z,0.00
2022-12-23T04:24:13.616Z,0.00
2022-12-23T04:25:13.583Z,0.00
2022-12-23T04:26:13.546Z,0.00
2022-12-23T04:27:13.525Z,0.00
2022-12-23T04:28:13.475Z,0.00
2022-12-23T04:29:13.531Z,0.00
2022-12-23T04:30:13.452Z,0.00
2022-12-23T04:31:13.412Z,0.00
2022-12-23T04:32:13.359Z,0.00
2022-12-23T04:33:13.297Z,0.00
2022-12-23T04:34:13.255Z,0.00
2022-12-23T04:35:13.215Z,0.00
2022-12-23T04:36:13.187Z,0.00
2022-12-23T04:37:13.144Z,0.00
2022-12-23T04:38:13.110Z,0.00
2022-12-23T04:39:13.080Z,0.00
2022-12-23T04:40:13.036Z,0.00
2022-12-23T04:41:13.004Z,0.00
2022-12-23T04:42:12.964Z,0.00
2022-12-23T04:43:12.925Z,0.00
2022-12-23T04:44:12.888Z,0.00
2022-12-23T04:45:12.854Z,0.00
2022-12-23T04:46:12.871Z,0.00
2022-12-23T04:47:12.794Z,0.00
2022-12-23T04:48:12.765Z,0.00
2022-12-23T04:49:12.708Z,0.00
2022-12-23T04:50:12.674Z,0.00
2022-12-23T04:51:12.638Z,0.00
2022-12-23T04:52:12.598Z,0.00
2022-12-23T04:53:12.567Z,0.00
2022-12-23T04:54:12.530Z,0.00
2022-12-23T04:55:12.490Z,0.00
2022-12-23T04:56:12.451Z,0.00
2022-12-23T04:57:12.422Z,0.00
2022-12-23T04:58:12.384Z,0.00
2022-12-23T04:59:12.342Z,0.00
2022-12-23T05:00:12.312Z,0.00
2022-12-23T05:01:12.318Z,0.00
2022-12-23T05:02:12.538Z,0.00
2022-12-23T05:03:12.403Z,0.00
2022-12-23T05:04:12.184Z,0.00
2022-12-23T05:05:12.125Z,0.00
2022-12-23T05:06:12.094Z,0.00
2022-12-23T05:07:12.054Z,0.00
2022-12-23T05:08:12.017Z,0.00
2022-12-23T05:09:11.985Z,0.00
2022-12-23T05:10:11.950Z,0.00
2022-12-23T05:11:11.911Z,0.00
2022-12-23T05:12:11.873Z,0.00
2022-12-23T05:13:11.837Z,0.00
2022-12-23T05:14:11.802Z,0.00
2022-12-23T05:15:11.763Z,0.00
2022-12-23T05:16:11.805Z,0.00
2022-12-23T05:17:11.689Z,0.00
2022-12-23T05:18:11.670Z,0.00
2022-12-23T05:19:11.621Z,0.00
2022-12-23T05:20:11.588Z,0.00
2022-12-23T05:21:11.544Z,0.00
2022-12-23T05:22:11.513Z,0.00
2022-12-23T05:23:11.476Z,0.00
2022-12-23T05:24:11.436Z,0.00
2022-12-23T05:25:11.394Z,0.00
2022-12-23T05:26:11.363Z,0.00
2022-12-23T05:27:11.322Z,0.00
2022-12-23T05:28:11.287Z,0.00
2022-12-23T05:29:11.250Z,0.00
2022-12-23T05:30:11.214Z,0.00
2022-12-23T05:31:11.252Z,0.00
2022-12-23T05:32:11.203Z,0.00
2022-12-23T05:33:11.217Z,0.00
2022-12-23T05:34:11.214Z,0.00
2022-12-23T05:35:11.039Z,0.00
2022-12-23T05:36:11.003Z,0.00
2022-12-23T05:37:10.960Z,0.00
2022-12-23T05:38:10.932Z,0.00
2022-12-23T05:39:10.888Z,0.00
2022-12-23T05:40:10.852Z,0.00
2022-12-23T05:41:10.814Z,0.00
2022-12-23T05:42:10.784Z,0.00
2022-12-23T05:43:10.752Z,0.00
2022-12-23T05:44:10.716Z,0.00
2022-12-23T05:45:10.680Z,0.00
2022-12-23T05:46:10.724Z,0.00
2022-12-23T05:47:10.611Z,0.00
2022-12-23T05:48:10.578Z,0.00
2022-12-23T05:49:10.554Z,0.00
2022-12-23T05:50:10.488Z,0.00
2022-12-23T05:51:10.464Z,0.00
2022-12-23T05:52:10.415Z,0.00
2022-12-23T05:53:10.380Z,0.00
2022-12-23T05:54:10.374Z,0.00
2022-12-23T05:55:10.312Z,0.00
2022-12-23T05:56:10.273Z,0.00
2022-12-23T05:57:10.237Z,0.00
2022-12-23T05:58:10.205Z,0.00
2022-12-23T05:59:10.171Z,0.00
2022-12-23T06:00:10.131Z,0.00
2022-12-23T06:01:10.088Z,0.00
2022-12-23T06:02:10.205Z,0.00
2022-12-23T06:03:10.179Z,0.00
2022-12-23T06:04:10.141Z,0.00
2022-12-23T06:05:09.949Z,0.00
2022-12-23T06:06:09.922Z,0.00
2022-12-23T06:07:09.879Z,0.00
2022-12-23T06:08:09.841Z,0.00
2022-12-23T06:09:10.869Z,0.00
2022-12-23T06:10:09.769Z,0.00
2022-12-23T06:11:09.745Z,0.00
2022-12-23T06:12:09.693Z,0.00
2022-12-23T06:13:09.660Z,0.00
2022-12-23T06:14:09.626Z,0.00
2022-12-23T06:15:09.612Z,0.00
2022-12-23T06:16:09.612Z,0.00
2022-12-23T06:17:09.513Z,0.00
2022-12-23T06:18:09.482Z,0.00
2022-12-23T06:19:09.440Z,0.00
2022-12-23T06:20:13.368Z,0.00
2022-12-23T06:21:09.383Z,0.00
2022-12-23T06:22:09.337Z,0.00
2022-12-23T06:23:09.307Z,0.00
2022-12-23T06:24:09.263Z,0.00
2022-12-23T06:25:09.237Z,0.00
2022-12-23T06:26:09.187Z,0.00
2022-12-23T06:27:09.166Z,0.00
2022-12-23T06:28:09.124Z,0.00
2022-12-23T06:29:09.084Z,0.00
2022-12-23T06:30:09.052Z,0.00
2022-12-23T06:31:09.022Z,0.00
2022-12-23T06:32:09.080Z,0.00
2022-12-23T06:33:08.937Z,0.00
2022-12-23T06:34:08.921Z,0.00
2022-12-23T06:35:08.885Z,0.00
2022-12-23T06:36:08.835Z,0.00
2022-12-23T06:37:08.804Z,0.00
2022-12-23T06:38:12.077Z,0.00
2022-12-23T06:39:08.721Z,0.00
2022-12-23T06:40:08.697Z,0.00
2022-12-23T06:41:08.660Z,0.00
2022-12-23T06:42:08.619Z,0.00
2022-12-23T06:43:08.576Z,0.00
2022-12-23T06:44:08.546Z,0.00
2022-12-23T06:45:08.505Z,0.00
2022-12-23T06:46:08.530Z,0.00
2022-12-23T06:47:08.435Z,0.00
2022-12-23T06:48:08.409Z,0.00
2022-12-23T06:49:13.160Z,0.00
2022-12-23T06:50:08.329Z,0.00
2022-12-23T06:51:08.289Z,0.00
2022-12-23T06:52:08.251Z,0.00
2022-12-23T06:53:08.255Z,0.00
2022-12-23T06:54:08.201Z,0.00
2022-12-23T06:55:08.153Z,0.00
2022-12-23T06:56:08.137Z,0.00
2022-12-23T06:57:08.080Z,0.00
2022-12-23T06:58:08.037Z,0.00
2022-12-23T06:59:07.998Z,0.00
2022-12-23T07:00:07.964Z,0.00
2022-12-23T07:01:10.031Z,0.00
2022-12-23T07:02:08.245Z,0.00
2022-12-23T07:03:07.965Z,0.00
2022-12-23T07:04:07.824Z,0.00
2022-12-23T07:05:07.778Z,0.00
2022-12-23T07:06:07.763Z,0.00
2022-12-23T07:07:07.710Z,0.00
2022-12-23T07:08:07.682Z,0.00
2022-12-23T07:09:07.639Z,0.00
2022-12-23T07:10:07.599Z,0.00
2022-12-23T07:11:07.567Z,0.00
2022-12-23T07:12:07.530Z,4.00
2022-12-23T07:13:07.513Z,4.00
2022-12-23T07:14:07.460Z,0.00
2022-12-23T07:15:07.416Z,4.00
2022-12-23T07:16:07.423Z,4.00
2022-12-23T07:17:07.488Z,0.00
2022-12-23T07:18:07.314Z,4.00
2022-12-23T07:19:07.279Z,4.00
2022-12-23T07:20:07.249Z,8.00
2022-12-23T07:21:15.551Z,8.00
2022-12-23T07:22:07.184Z,4.00
2022-12-23T07:23:07.142Z,8.00
2022-12-23T07:24:07.122Z,12.00
2022-12-23T07:25:07.076Z,8.00
2022-12-23T07:26:07.034Z,8.00
2022-12-23T07:27:06.997Z,8.00
2022-12-23T07:28:06.956Z,12.00
2022-12-23T07:29:06.922Z,12.00
2022-12-23T07:30:06.888Z,12.00
2022-12-23T07:31:06.858Z,12.00
2022-12-23T07:32:06.896Z,12.00
2022-12-23T07:33:06.776Z,12.00
2022-12-23T07:34:06.748Z,12.00
2022-12-23T07:35:06.698Z,12.00
2022-12-23T07:36:06.673Z,12.00
2022-12-23T07:37:06.629Z,16.00
2022-12-23T07:38:06.595Z,16.00
2022-12-23T07:39:06.559Z,16.00
2022-12-23T07:40:08.847Z,20.00
2022-12-23T07:41:06.509Z,20.00
2022-12-23T07:42:42.720Z,24.00
2022-12-23T07:43:06.416Z,24.00
2022-12-23T07:44:06.389Z,28.00
2022-12-23T07:45:06.344Z,24.00
2022-12-23T07:46:06.338Z,28.00
2022-12-23T07:47:06.277Z,32.00
2022-12-23T07:48:06.233Z,32.00
2022-12-23T07:49:06.196Z,36.00
2022-12-23T07:50:06.166Z,32.00
2022-12-23T07:51:06.152Z,36.00
2022-12-23T07:52:06.087Z,36.00
2022-12-23T07:53:06.054Z,36.00
2022-12-23T07:54:06.016Z,36.00
2022-12-23T07:55:05.982Z,36.00
2022-12-23T07:56:05.959Z,40.00
2022-12-23T07:57:05.911Z,40.00
2022-12-23T07:58:05.892Z,48.00
2022-12-23T07:59:05.833Z,52.00
2022-12-23T08:00:05.818Z,60.00
2022-12-23T08:01:05.803Z,60.00
2022-12-23T08:02:05.927Z,64.00
2022-12-23T08:03:05.802Z,68.00
2022-12-23T08:04:05.677Z,72.00
2022-12-23T08:05:05.707Z,76.00
2022-12-23T08:06:05.586Z,80.00
2022-12-23T08:07:05.557Z,88.00
2022-12-23T08:08:05.513Z,96.00
2022-12-23T08:09:05.474Z,100.00
2022-12-23T08:10:05.436Z,108.00
2022-12-23T08:11:05.423Z,112.00
2022-12-23T08:12:05.377Z,108.00
2022-12-23T08:13:05.337Z,108.00
2022-12-23T08:14:05.297Z,108.00
2022-12-23T08:15:05.277Z,112.00
2022-12-23T08:16:05.296Z,116.00
2022-12-23T08:17:05.368Z,116.00
2022-12-23T08:18:05.154Z,112.00
2022-12-23T08:19:05.116Z,112.00
2022-12-23T08:20:05.090Z,120.00
2022-12-23T08:21:05.047Z,124.00
2022-12-23T08:22:05.010Z,128.00
2022-12-23T08:23:04.975Z,132.00
2022-12-23T08:24:04.935Z,132.00
2022-12-23T08:25:04.907Z,128.00
2022-12-23T08:26:04.923Z,128.00
2022-12-23T08:27:04.881Z,124.00
2022-12-23T08:28:04.795Z,124.00
2022-12-23T08:29:04.783Z,128.00
2022-12-23T08:30:04.735Z,128.00
2022-12-23T08:31:04.756Z,124.00
2022-12-23T08:32:04.656Z,120.00
2022-12-23T08:33:04.623Z,120.00
2022-12-23T08:34:04.593Z,120.00
2022-12-23T08:35:04.547Z,120.00
2022-12-23T08:36:04.511Z,116.00
2022-12-23T08:37:04.472Z,112.00
2022-12-23T08:38:04.436Z,100.00
2022-12-23T08:39:04.400Z,92.00
2022-12-23T08:40:04.372Z,84.00
2022-12-23T08:41:04.337Z,76.00
2022-12-23T08:42:04.293Z,76.00
2022-12-23T08:43:04.264Z,84.00
2022-12-23T08:44:04.231Z,88.00
2022-12-23T08:45:04.196Z,96.00
2022-12-23T08:46:04.227Z,104.00
2022-12-23T08:47:04.117Z,108.00
2022-12-23T08:48:04.088Z,108.00
2022-12-23T08:49:04.048Z,108.00
2022-12-23T08:50:04.025Z,116.00
2022-12-23T08:51:03.974Z,120.00
2022-12-23T08:52:03.937Z,116.00
2022-12-23T08:53:03.902Z,124.00
2022-12-23T08:54:03.877Z,128.00
2022-12-23T08:55:03.825Z,132.00
2022-12-23T08:56:03.796Z,136.00
2022-12-23T08:57:03.762Z,144.00
2022-12-23T08:58:03.727Z,148.00
2022-12-23T08:59:03.686Z,148.00
2022-12-23T09:00:03.663Z,152.00
2022-12-23T09:01:03.700Z,156.00
2022-12-23T09:02:03.788Z,160.00
2022-12-23T09:03:03.666Z,168.00
2022-12-23T09:04:03.572Z,176.00
2022-12-23T09:05:03.469Z,188.00
2022-12-23T09:06:03.437Z,192.00
2022-12-23T09:07:03.406Z,200.00
2022-12-23T09:08:03.377Z,196.00
2022-12-23T09:09:03.320Z,192.00
2022-12-23T09:10:03.295Z,184.00
2022-12-23T09:11:03.279Z,184.00
2022-12-23T09:12:03.223Z,176.00
2022-12-23T09:13:03.195Z,172.00
2022-12-23T09:14:03.145Z,176.00
2022-12-23T09:15:03.120Z,184.00
2022-12-23T09:16:03.148Z,192.00
2022-12-23T09:17:03.063Z,196.00
2022-12-23T09:18:03.000Z,204.00
2022-12-23T09:19:02.961Z,216.00
2022-12-23T09:20:02.930Z,220.00
2022-12-23T09:21:02.901Z,216.00
2022-12-23T09:22:02.861Z,212.00
2022-12-23T09:23:02.834Z,208.00
2022-12-23T09:24:02.783Z,204.00
2022-12-23T09:25:05.301Z,200.00
2022-12-23T09:26:02.717Z,192.00
2022-12-23T09:27:02.683Z,188.00
2022-12-23T09:28:02.643Z,184.00
2022-12-23T09:29:02.608Z,188.00
2022-12-23T09:30:02.579Z,188.00
2022-12-23T09:31:02.644Z,192.00
2022-12-23T09:32:02.507Z,188.00
2022-12-23T09:33:02.468Z,180.00
2022-12-23T09:34:02.450Z,176.00
2022-12-23T09:35:02.394Z,172.00
2022-12-23T09:36:02.365Z,164.00
2022-12-23T09:37:02.325Z,156.00
2022-12-23T09:38:02.291Z,156.00
2022-12-23T09:39:02.257Z,156.00
2022-12-23T09:40:02.252Z,164.00
2022-12-23T09:41:02.190Z,176.00
2022-12-23T09:42:02.156Z,184.00
2022-12-23T09:43:02.139Z,200.00
2022-12-23T09:44:02.074Z,208.00
2022-12-23T09:45:02.067Z,208.00
2022-12-23T09:46:02.058Z,208.00
2022-12-23T09:47:02.198Z,212.00
2022-12-23T09:48:01.940Z,224.00
2022-12-23T09:49:01.913Z,236.00
2022-12-23T09:50:01.858Z,256.00
2022-12-23T09:51:01.830Z,284.00
2022-12-23T09:52:01.797Z,312.00
2022-12-23T09:53:01.765Z,336.00
2022-12-23T09:54:01.724Z,360.00
2022-12-23T09:55:01.700Z,380.00
2022-12-23T09:56:01.645Z,392.00
2022-12-23T09:57:01.609Z,404.00
2022-12-23T09:58:01.577Z,412.00
2022-12-23T09:59:01.547Z,408.00
2022-12-23T10:00:01.502Z,404.00
2022-12-23T10:01:01.477Z,392.00
2022-12-23T10:02:01.547Z,380.00
2022-12-23T10:03:01.698Z,384.00
2022-12-23T10:04:01.450Z,392.00
2022-12-23T10:05:01.331Z,416.00
2022-12-23T10:06:01.321Z,440.00
2022-12-23T10:07:03.124Z,468.00
2022-12-23T10:08:01.224Z,496.00
2022-12-23T10:09:01.188Z,532.00
2022-12-23T10:10:01.151Z,560.00
2022-12-23T10:11:01.125Z,592.00
2022-12-23T10:12:01.086Z,612.00
2022-12-23T10:13:01.042Z,604.00
2022-12-23T10:14:01.006Z,580.00
2022-12-23T10:15:00.978Z,556.00
2022-12-23T10:16:00.974Z,528.00
2022-12-23T10:17:00.903Z,512.00
2022-12-23T10:18:00.895Z,500.00
2022-12-23T10:19:00.837Z,488.00
2022-12-23T10:20:00.807Z,480.00
2022-12-23T10:21:00.759Z,484.00
2022-12-23T10:22:00.735Z,480.00
2022-12-23T10:23:00.697Z,472.00
2022-12-23T10:24:00.651Z,460.00
2022-12-23T10:25:00.639Z,448.00
2022-12-23T10:26:00.585Z,436.00
2022-12-23T10:27:00.566Z,436.00
2022-12-23T10:28:00.522Z,416.00
2022-12-23T10:29:00.482Z,396.00
2022-12-23T10:30:09.635Z,396.00
2022-12-23T10:32:00.511Z,440.00
2022-12-23T10:33:00.340Z,456.00
2022-12-23T10:34:00.298Z,456.00
2022-12-23T10:35:00.269Z,452.00
2022-12-23T10:36:00.268Z,448.00
2022-12-23T10:37:00.374Z,472.00
2022-12-23T10:38:00.170Z,500.00
2022-12-23T10:39:00.123Z,528.00
2022-12-23T10:40:00.113Z,544.00
2022-12-23T10:41:06.955Z,540.00
2022-12-23T10:42:00.020Z,516.00
2022-12-23T10:42:59.987Z,480.00
2022-12-23T10:43:59.945Z,436.00
2022-12-23T10:44:59.912Z,408.00
2022-12-23T10:45:59.877Z,392.00
2022-12-23T10:46:59.916Z,364.00
2022-12-23T10:47:59.802Z,328.00
2022-12-23T10:48:59.768Z,288.00
2022-12-23T10:49:59.731Z,260.00
2022-12-23T10:50:59.720Z,240.00
2022-12-23T10:51:59.689Z,232.00
2022-12-23T10:52:59.638Z,236.00
2022-12-23T10:53:59.594Z,244.00
2022-12-23T10:54:59.563Z,268.00
2022-12-23T10:55:59.521Z,308.00
2022-12-23T10:56:59.485Z,368.00
2022-12-23T10:57:59.451Z,408.00
2022-12-23T10:58:59.424Z,432.00
2022-12-23T10:59:59.393Z,428.00
2022-12-23T11:00:59.420Z,404.00
2022-12-23T11:01:59.641Z,364.00
2022-12-23T11:02:59.392Z,328.00
2022-12-23T11:03:59.235Z,292.00
2022-12-23T11:04:59.214Z,264.00
2022-12-23T11:05:59.171Z,260.00
2022-12-23T11:07:26.300Z,272.00
2022-12-23T11:07:59.096Z,272.00
2022-12-23T11:08:59.063Z,248.00
2022-12-23T11:09:59.023Z,216.00
2022-12-23T11:10:58.992Z,192.00
2022-12-23T11:11:58.950Z,176.00
2022-12-23T11:12:58.921Z,160.00
2022-12-23T11:13:58.901Z,160.00
2022-12-23T11:14:58.849Z,156.00
2022-12-23T11:15:58.887Z,164.00
2022-12-23T11:16:58.777Z,176.00
2022-12-23T11:17:58.744Z,184.00
2022-12-23T11:18:58.706Z,196.00
2022-12-23T11:19:58.673Z,216.00
2022-12-23T11:20:58.647Z,236.00
2022-12-23T11:21:58.597Z,252.00
2022-12-23T11:22:58.574Z,268.00
2022-12-23T11:23:58.527Z,284.00
2022-12-23T11:24:58.499Z,292.00
2022-12-23T11:25:58.462Z,284.00
2022-12-23T11:26:58.421Z,260.00
2022-12-23T11:27:58.388Z,240.00
2022-12-23T11:28:58.352Z,208.00
2022-12-23T11:29:58.309Z,184.00
2022-12-23T11:30:58.279Z,172.00
2022-12-23T11:31:58.284Z,176.00
2022-12-23T11:32:58.208Z,180.00
2022-12-23T11:33:58.187Z,184.00
2022-12-23T11:34:58.189Z,188.00
2022-12-23T11:35:58.095Z,192.00
2022-12-23T11:37:03.356Z,196.00
2022-12-23T11:37:58.033Z,196.00
2022-12-23T11:38:57.998Z,204.00
2022-12-23T11:39:57.953Z,220.00
2022-12-23T11:40:57.931Z,244.00
2022-12-23T11:41:57.882Z,280.00
2022-12-23T11:42:57.848Z,308.00
2022-12-23T11:43:57.819Z,348.00
2022-12-23T11:44:57.780Z,384.00
2022-12-23T11:45:57.799Z,388.00
2022-12-23T11:46:57.719Z,380.00
2022-12-23T11:47:57.665Z,400.00
2022-12-23T11:48:57.624Z,452.00
2022-12-23T11:49:57.594Z,544.00
2022-12-23T11:50:57.569Z,660.00
2022-12-23T11:51:57.520Z,760.00
2022-12-23T11:52:57.485Z,800.00
2022-12-23T11:53:57.448Z,788.00
2022-12-23T11:54:57.420Z,768.00
2022-12-23T11:55:57.379Z,672.00
2022-12-23T11:56:57.466Z,540.00
2022-12-23T11:57:57.303Z,408.00
2022-12-23T11:58:57.273Z,332.00
2022-12-23T11:59:57.235Z,272.00
2022-12-23T12:00:57.196Z,236.00
2022-12-23T12:01:57.200Z,224.00
2022-12-23T12:02:57.213Z,232.00
2022-12-23T12:03:57.119Z,240.00
2022-12-23T12:04:57.058Z,244.00
2022-12-23T12:05:57.015Z,228.00
2022-12-23T12:06:57.083Z,204.00
2022-12-23T12:07:56.965Z,180.00
2022-12-23T12:08:56.918Z,164.00
2022-12-23T12:09:56.875Z,152.00
2022-12-23T12:10:56.835Z,136.00
2022-12-23T12:11:56.802Z,124.00
2022-12-23T12:12:56.795Z,108.00
2022-12-23T12:13:56.726Z,104.00
2022-12-23T12:14:56.691Z,112.00
2022-12-23T12:15:56.675Z,140.00
2022-12-23T12:16:56.698Z,180.00
2022-12-23T12:17:56.600Z,216.00
2022-12-23T12:18:56.558Z,256.00
2022-12-23T12:19:56.513Z,292.00
2022-12-23T12:20:56.486Z,324.00
2022-12-23T12:21:56.445Z,344.00
2022-12-23T12:22:56.862Z,376.00
2022-12-23T12:24:17.181Z,404.00
2022-12-23T12:24:56.343Z,456.00
2022-12-23T12:25:56.301Z,512.00
2022-12-23T12:26:56.268Z,532.00
2022-12-23T12:27:56.229Z,532.00
2022-12-23T12:28:56.192Z,488.00
2022-12-23T12:29:56.152Z,404.00
2022-12-23T12:30:56.290Z,352.00
2022-12-23T12:31:56.096Z,364.00
2022-12-23T12:32:56.056Z,428.00
2022-12-23T12:33:56.031Z,536.00
2022-12-23T12:34:55.977Z,628.00
2022-12-23T12:36:00.227Z,688.00
2022-12-23T12:36:55.997Z,676.00
2022-12-23T12:37:55.884Z,600.00
2022-12-23T12:38:55.844Z,508.00
2022-12-23T12:39:55.797Z,436.00
2022-12-23T12:40:55.757Z,388.00
2022-12-23T12:42:00.132Z,348.00
2022-12-23T12:42:55.696Z,328.00
2022-12-23T12:43:55.647Z,312.00
2022-12-23T12:44:55.629Z,308.00
2022-12-23T12:45:55.603Z,304.00
2022-12-23T12:46:55.543Z,288.00
2022-12-23T12:47:59.909Z,284.00
2022-12-23T12:48:55.478Z,304.00
2022-12-23T12:49:55.435Z,340.00
2022-12-23T12:50:55.418Z,344.00
2022-12-23T12:51:55.359Z,292.00
2022-12-23T12:52:55.354Z,244.00
2022-12-23T12:53:59.473Z,208.00
2022-12-23T12:54:55.275Z,184.00
2022-12-23T12:55:55.223Z,156.00
2022-12-23T12:56:55.195Z,136.00
2022-12-23T12:57:55.144Z,136.00